Time;durP1;ratioP1;P1;durP2;ratioP2;P2;SDS_P1;SDS_P2;PMS_P1;PMS_P2;Temp;Humidity;BMP_temperature;BMP_pressure;BME280_temperature;BME280_humidity;BME280_pressure;Samples;Min_cycle;Max_cycle;Signal;HPM_P1;HPM_P2
2022/04/22 00:00:04;;;;;;;20.10;14.75;;;;;;;10.57;100.00;100471.13;5073219;28;20037;-72
2022/04/22 00:02:29;;;;;;;22.02;15.85;;;;;;;10.41;100.00;100468.81;5073549;28;20682;-73
2022/04/22 00:04:55;;;;;;;18.60;14.40;;;;;;;10.20;100.00;100444.81;5072928;28;20025;-73
2022/04/22 00:07:20;;;;;;;17.30;14.55;;;;;;;10.31;100.00;100480.44;5072599;28;20064;-73
2022/04/22 00:09:46;;;;;;;18.88;15.15;;;;;;;10.15;100.00;100460.91;5070207;28;20033;-73
2022/04/22 00:12:11;;;;;;;15.80;14.20;;;;;;;10.21;100.00;100474.03;5071821;28;20048;-73
2022/04/22 00:14:37;;;;;;;17.23;14.63;;;;;;;10.16;100.00;100468.69;5071853;28;20047;-73
2022/04/22 00:17:02;;;;;;;19.58;14.90;;;;;;;10.24;100.00;100470.72;5071831;28;20060;-73
2022/04/22 00:19:29;;;;;;;18.13;14.98;;;;;;;10.14;100.00;100470.38;5052225;28;20025;-73
2022/04/22 00:21:55;;;;;;;17.08;15.18;;;;;;;10.11;100.00;100467.66;5052160;28;20025;-75
2022/04/22 00:24:21;;;;;;;18.90;15.10;;;;;;;9.97;100.00;100459.38;5064465;28;20039;-72
2022/04/22 00:26:46;;;;;;;18.50;16.02;;;;;;;9.96;100.00;100467.94;5071936;28;20073;-73
2022/04/22 00:29:12;;;;;;;17.23;15.32;;;;;;;9.82;100.00;100454.50;5071997;28;20051;-72
2022/04/22 00:31:38;;;;;;;18.77;15.95;;;;;;;9.75;100.00;100465.38;5072150;28;20036;-72
2022/04/22 00:34:04;;;;;;;20.30;16.15;;;;;;;9.48;100.00;100432.53;5072921;28;20104;-72
2022/04/22 00:36:29;;;;;;;19.25;16.38;;;;;;;9.73;100.00;100472.16;5072875;28;20107;-72
2022/04/22 00:38:56;;;;;;;17.48;15.68;;;;;;;9.51;100.00;100461.00;5072428;28;20521;-73
2022/04/22 00:41:22;;;;;;;17.00;15.20;;;;;;;9.35;100.00;100458.59;5063645;28;20048;-71
2022/04/22 00:43:50;;;;;;;17.15;15.38;;;;;;;9.50;100.00;100487.56;5052456;28;20581;-73
2022/04/22 00:46:17;;;;;;;18.25;15.88;;;;;;;9.50;100.00;100494.44;5052639;28;20113;-72
2022/04/22 00:48:43;;;;;;;18.25;16.27;;;;;;;9.64;100.00;100501.03;5052421;28;20024;-73
2022/04/22 00:51:10;;;;;;;17.73;15.55;;;;;;;9.61;100.00;100489.69;5052457;28;20052;-73
2022/04/22 00:53:49;;;;;;;19.63;16.17;;;;;;;9.66;100.00;100488.22;5034449;28;20443;-73
2022/04/22 00:56:14;;;;;;;18.00;15.43;;;;;;;9.67;100.00;100487.38;5051951;28;20092;-74
2022/04/22 00:58:44;;;;;;;18.48;15.57;;;;;;;9.78;100.00;100500.72;5052415;28;20056;-72
2022/04/22 01:01:14;;;;;;;18.70;15.75;;;;;;;9.80;100.00;100497.38;5051588;28;20044;-74
2022/04/22 01:09:46;;;;;;;19.15;14.85;;;;;;;9.82;100.00;100490.59;5052305;28;20021;-73
2022/04/22 01:11:58;;;;;;;16.52;14.80;;;;;;;9.99;100.00;100505.84;5052055;28;20132;-72
2022/04/22 01:14:24;;;;;;;18.92;16.15;;;;;;;9.98;100.00;100498.94;5052240;28;20029;-73
2022/04/22 01:16:49;;;;;;;20.63;15.75;;;;;;;9.99;100.00;100493.88;5051416;28;20419;-73
2022/04/22 01:19:15;;;;;;;16.38;14.68;;;;;;;10.02;100.00;100495.69;5051886;28;20056;-73
2022/04/22 01:21:42;;;;;;;16.23;14.50;;;;;;;9.98;100.00;100488.63;5051901;28;20037;-73
2022/04/22 01:24:07;;;;;;;18.50;15.43;;;;;;;9.98;100.00;100483.47;5033993;28;20032;-72
2022/04/22 01:26:33;;;;;;;17.35;15.45;;;;;;;9.99;100.00;100460.34;5051881;28;20024;-73
2022/04/22 01:28:58;;;;;;;21.30;15.52;;;;;;;10.02;100.00;100454.41;5051341;28;20021;-73
2022/04/22 01:31:24;;;;;;;20.25;16.45;;;;;;;9.91;100.00;100417.88;5051414;28;20025;-73
2022/04/22 01:33:50;;;;;;;21.52;14.30;;;;;;;10.16;100.00;100416.25;5048493;28;20415;-72
2022/04/22 01:36:16;;;;;;;14.90;10.48;;;;;;;10.00;100.00;100391.56;5051332;28;20021;-72
2022/04/22 01:38:43;;;;;;;16.05;11.02;;;;;;;9.79;100.00;100366.69;5051134;28;20456;-73
2022/04/22 01:41:08;;;;;;;17.73;11.02;;;;;;;10.03;100.00;100408.03;5051335;28;20028;-70
2022/04/22 01:43:34;;;;;;;17.00;12.00;;;;;;;10.09;100.00;100407.38;5051802;28;20029;-73
2022/04/22 01:46:00;;;;;;;15.35;11.02;;;;;;;10.11;100.00;100395.41;5051269;28;20027;-71
2022/04/22 01:48:25;;;;;;;17.60;11.05;;;;;;;10.15;100.00;100393.84;5051746;28;20033;-72
2022/04/22 01:50:51;;;;;;;23.20;11.65;;;;;;;10.21;100.00;100404.38;5051240;28;20028;-73
2022/04/22 01:53:17;;;;;;;21.10;10.85;;;;;;;10.23;100.00;100407.91;5051445;28;20021;-70
2022/04/22 01:55:43;;;;;;;23.63;11.18;;;;;;;10.08;100.00;100403.06;5051444;28;20032;-73
2022/04/22 01:58:08;;;;;;;20.02;10.45;;;;;;;10.21;100.00;100417.28;5051315;28;20029;-73
2022/04/22 02:00:34;;;;;;;18.13;10.10;;;;;;;10.14;100.00;100389.50;5050559;28;20465;-72
2022/04/22 02:03:00;;;;;;;20.08;11.05;;;;;;;10.30;100.00;100411.59;5051082;28;20017;-73
2022/04/22 02:05:26;;;;;;;18.25;11.65;;;;;;;10.36;100.00;100411.84;5051137;28;20059;-72
2022/04/22 02:07:51;;;;;;;20.08;11.20;;;;;;;10.39;100.00;100408.50;5051478;28;20036;-72
2022/04/22 02:10:17;;;;;;;16.88;11.18;;;;;;;10.43;100.00;100398.34;5050922;28;20090;-74
2022/04/22 02:12:42;;;;;;;19.52;11.10;;;;;;;10.51;100.00;100393.47;5050960;28;20470;-74
2022/04/22 02:15:08;;;;;;;18.00;11.05;;;;;;;10.26;100.00;100363.28;5050485;28;20025;-74
2022/04/22 02:17:34;;;;;;;18.20;10.02;;;;;;;10.38;100.00;100433.44;5050957;28;20083;-74
2022/04/22 02:20:00;;;;;;;18.25;10.57;;;;;;;10.21;100.00;100414.72;5050776;28;20029;-75
2022/04/22 02:22:25;;;;;;;14.55;11.05;;;;;;;10.11;100.00;100399.72;5050502;28;20032;-73
2022/04/22 02:24:51;;;;;;;18.33;12.82;;;;;;;10.13;100.00;100450.53;5050577;28;20029;-75
2022/04/22 02:30:00;;;;;;;16.15;13.38;;;;;;;9.50;100.00;100451.50;5049529;28;20047;-75
2022/04/22 02:32:26;;;;;;;17.88;14.43;;;;;;;9.63;100.00;100470.94;5049577;28;20020;-75
2022/04/22 02:34:52;;;;;;;16.67;14.60;;;;;;;9.64;100.00;100464.94;5050043;28;20016;-75
2022/04/22 02:37:17;;;;;;;17.05;14.73;;;;;;;9.72;100.00;100470.44;5049216;28;20460;-75
2022/04/22 02:39:43;;;;;;;17.27;15.05;;;;;;;9.76;100.00;100466.25;5049871;28;20376;-75
2022/04/22 02:47:36;;;;;;;17.80;15.23;;;;;;;9.97;100.00;100438.75;5050641;28;20028;-73
2022/04/22 02:50:02;;;;;;;21.73;16.35;;;;;;;10.00;100.00;100440.56;5050664;28;20024;-74
2022/04/22 02:52:27;;;;;;;16.85;14.75;;;;;;;10.00;100.00;100405.31;5050897;28;20025;-72
2022/04/22 02:54:54;;;;;;;21.52;16.10;;;;;;;10.14;100.00;100423.03;5050786;28;20075;-74
2022/04/22 02:57:20;;;;;;;20.55;16.02;;;;;;;10.15;100.00;100428.25;5050414;28;20021;-74
2022/04/22 02:59:47;;;;;;;17.83;13.55;;;;;;;10.25;100.00;100446.66;5032650;28;20021;-72
2022/04/22 03:02:12;;;;;;;19.35;14.55;;;;;;;10.17;100.00;100460.16;5050555;28;20021;-74
2022/04/22 03:04:38;;;;;;;17.17;13.90;;;;;;;9.87;100.00;100419.47;5050460;28;20134;-75
2022/04/22 03:07:03;;;;;;;19.88;15.43;;;;;;;10.18;100.00;100454.16;5050488;28;20053;-74
2022/04/22 03:09:29;;;;;;;20.02;15.13;;;;;;;10.09;100.00;100435.75;5032460;28;20036;-74
2022/04/22 03:11:55;;;;;;;18.70;15.85;;;;;;;10.03;100.00;100425.19;5050208;28;20053;-74
2022/04/22 03:14:21;;;;;;;19.38;14.27;;;;;;;10.12;100.00;100437.56;5050376;28;20056;-75
2022/04/22 03:16:46;;;;;;;15.50;13.82;;;;;;;10.14;100.00;100438.50;5050662;28;20021;-75
2022/04/22 03:19:12;;;;;;;14.48;12.43;;;;;;;10.09;100.00;100430.59;5050338;28;20446;-74
2022/04/22 03:21:37;;;;;;;19.42;12.68;;;;;;;10.15;100.00;100440.28;5049967;28;20111;-74
2022/04/22 03:24:03;;;;;;;19.08;12.05;;;;;;;10.17;100.00;100420.59;5049936;28;20021;-74
2022/04/22 03:26:28;;;;;;;15.38;12.07;;;;;;;10.16;100.00;100422.28;5032474;28;20047;-74
2022/04/22 03:28:55;;;;;;;16.23;11.27;;;;;;;10.26;100.00;100414.88;5050373;28;20040;-74
2022/04/22 03:31:20;;;;;;;13.20;10.32;;;;;;;10.33;100.00;100424.59;5050154;28;20029;-74
2022/04/22 03:33:46;;;;;;;14.00;10.73;;;;;;;10.26;100.00;100422.63;5050032;28;20108;-74
2022/04/22 03:36:14;;;;;;;14.43;10.32;;;;;;;10.15;100.00;100407.59;5050138;28;20060;-74
2022/04/22 03:38:40;;;;;;;12.35;9.90;;;;;;;10.12;100.00;100402.34;5050159;28;20025;-74
2022/04/22 03:41:06;;;;;;;17.92;10.88;;;;;;;10.25;100.00;100424.31;5050109;28;20057;-74
2022/04/22 03:43:31;;;;;;;17.95;10.43;;;;;;;10.30;100.00;100430.53;5050192;28;20139;-74
2022/04/22 03:45:58;;;;;;;15.27;10.32;;;;;;;10.07;100.00;100416.78;5049999;28;20032;-74
2022/04/22 03:48:24;;;;;;;17.08;11.05;;;;;;;10.12;100.00;100448.78;5050215;28;20033;-74
2022/04/22 03:50:50;;;;;;;13.80;11.02;;;;;;;10.06;100.00;100445.97;5050146;28;20036;-74
2022/04/22 03:53:16;;;;;;;18.10;11.75;;;;;;;10.03;100.00;100444.16;5052204;28;20032;-74
2022/04/22 03:55:43;;;;;;;15.88;12.38;;;;;;;9.90;100.00;100407.50;5035773;28;20483;-73
2022/04/22 03:58:12;;;;;;;19.70;14.15;;;;;;;10.13;100.00;100422.16;5035798;28;20025;-74
2022/04/22 04:00:49;;;;;;;24.08;18.00;;;;;;;10.20;100.00;100416.44;5053690;28;20025;-74
2022/04/22 04:03:23;;;;;;;26.10;20.20;;;;;;;10.16;100.00;100396.47;5053831;28;20021;-74
2022/04/22 04:05:50;;;;;;;24.77;19.40;;;;;;;10.10;100.00;100392.78;5053465;28;20048;-74
2022/04/22 04:08:24;;;;;;;22.42;18.88;;;;;;;10.30;100.00;100415.03;5053728;28;20372;-75
2022/04/22 04:16:18;;;;;;;20.65;17.67;;;;;;;10.42;100.00;100430.16;5052363;28;20036;-74
2022/04/22 04:18:44;;;;;;;20.83;16.20;;;;;;;10.43;100.00;100431.00;5052699;28;20497;-74
2022/04/22 04:23:58;;;;;;;18.42;13.48;;;;;;;10.40;100.00;100434.34;5047883;28;20031;-74
2022/04/22 04:26:25;;;;;;;15.02;13.07;;;;;;;10.38;100.00;100441.19;5050855;28;20033;-74
2022/04/22 04:28:52;;;;;;;15.82;14.00;;;;;;;10.29;100.00;100435.63;5052968;28;20028;-74
2022/04/22 04:31:18;;;;;;;20.75;16.90;;;;;;;10.23;100.00;100430.25;5052861;28;20016;-73
2022/04/22 04:33:44;;;;;;;24.30;21.58;;;;;;;10.25;100.00;100444.09;5051449;28;20106;-74
2022/04/22 04:36:10;;;;;;;29.67;26.63;;;;;;;10.26;100.00;100458.75;5041274;28;20504;-74
2022/04/22 04:38:40;;;;;;;24.02;21.50;;;;;;;10.03;100.00;100420.94;5000656;28;20094;-73
2022/04/22 04:41:07;;;;;;;20.17;16.73;;;;;;;10.15;100.00;100446.31;5052327;28;20040;-74
2022/04/22 04:43:34;;;;;;;18.48;15.07;;;;;;;10.13;100.00;100457.38;5049375;28;20483;-74
2022/04/22 04:45:59;;;;;;;15.80;14.13;;;;;;;10.11;100.00;100448.72;5035865;28;20021;-74
2022/04/22 04:48:25;;;;;;;18.23;14.23;;;;;;;10.06;100.00;100430.50;5052813;28;20468;-75
2022/04/22 04:50:51;;;;;;;18.65;14.65;;;;;;;9.99;100.00;100425.91;5052747;28;20108;-74
2022/04/22 04:53:20;;;;;;;23.38;16.67;;;;;;;10.09;100.00;100440.91;5052912;28;20113;-74
2022/04/22 04:55:46;;;;;;;19.00;16.63;;;;;;;10.12;100.00;100445.31;5051688;28;20065;-74
2022/04/22 04:58:11;;;;;;;20.58;16.75;;;;;;;9.93;100.00;100415.34;5051928;28;20025;-71
2022/04/22 05:00:37;;;;;;;20.88;17.00;;;;;;;10.10;100.00;100439.22;5051885;28;20075;-73
2022/04/22 05:03:03;;;;;;;20.42;16.05;;;;;;;10.17;100.00;100462.72;5034016;28;20052;-71
2022/04/22 05:05:29;;;;;;;20.27;17.70;;;;;;;10.15;100.00;100460.91;5049621;28;20056;-74
2022/04/22 05:07:58;;;;;;;19.23;16.25;;;;;;;10.08;100.00;100454.66;5052644;28;20052;-74
2022/04/22 05:10:26;;;;;;;20.98;15.35;;;;;;;10.14;100.00;100460.03;5052523;28;20025;-74
2022/04/22 05:12:52;;;;;;;21.95;16.55;;;;;;;9.87;100.00;100426.31;5034414;28;20052;-74
2022/04/22 05:15:20;;;;;;;21.85;17.30;;;;;;;10.07;100.00;100462.31;5051512;28;20067;-73
2022/04/22 05:17:47;;;;;;;21.45;17.70;;;;;;;9.90;100.00;100435.88;5050954;28;20044;-74
2022/04/22 05:20:15;;;;;;;21.90;16.58;;;;;;;10.12;100.00;100474.56;5051778;28;20049;-74
2022/04/22 05:22:41;;;;;;;19.60;15.75;;;;;;;10.07;100.00;100475.19;5050898;28;20028;-74
2022/04/22 05:25:09;;;;;;;19.13;15.95;;;;;;;10.11;100.00;100470.22;5051362;28;20013;-73
2022/04/22 05:27:35;;;;;;;19.05;15.65;;;;;;;10.16;100.00;100473.88;5052034;28;20025;-74
2022/04/22 05:32:47;;;;;;;19.58;15.75;;;;;;;10.15;100.00;100471.22;5051979;28;20102;-74
2022/04/22 05:35:18;;;;;;;19.65;15.27;;;;;;;10.09;100.00;100450.34;5052242;28;20446;-73
2022/04/22 05:37:55;;;;;;;17.42;14.50;;;;;;;10.29;100.00;100464.00;5051645;28;20032;-74
2022/04/22 05:40:22;;;;;;;23.45;20.02;;;;;;;10.32;100.00;100446.09;5051691;28;20055;-73
2022/04/22 05:42:50;;;;;;;19.98;16.65;;;;;;;10.35;100.00;100464.25;5051789;28;20056;-75
2022/04/22 05:45:17;;;;;;;17.98;15.82;;;;;;;10.38;100.00;100448.03;5051914;28;20052;-74
2022/04/22 05:47:43;;;;;;;29.15;24.27;;;;;;;10.41;100.00;100438.69;5051860;28;20117;-74
2022/04/22 05:50:10;;;;;;;24.63;22.10;;;;;;;10.24;100.00;100424.25;5051532;28;20029;-74
2022/04/22 05:52:37;;;;;;;20.30;16.02;;;;;;;10.33;100.00;100440.97;5051480;28;20017;-74
2022/04/22 05:55:05;;;;;;;19.27;15.70;;;;;;;10.34;100.00;100452.16;5033164;28;20052;-74
2022/04/22 05:57:32;;;;;;;21.77;17.23;;;;;;;10.31;100.00;100462.38;5042917;28;20502;-74
2022/04/22 06:00:00;;;;;;;19.77;16.20;;;;;;;10.42;100.00;100465.38;5028549;28;20025;-75
2022/04/22 06:02:26;;;;;;;19.00;15.98;;;;;;;10.43;100.00;100478.38;5046102;28;20086;-74
2022/04/22 06:04:52;;;;;;;20.45;16.15;;;;;;;10.31;100.00;100472.72;5051197;28;20124;-75
2022/04/22 06:07:18;;;;;;;21.92;16.45;;;;;;;10.12;100.00;100487.47;5051441;28;20064;-76
2022/04/22 06:12:27;;;;;;;35.63;27.55;;;;;;;10.18;100.00;100492.88;5049665;28;20591;-73
2022/04/22 06:14:54;;;;;;;27.00;21.20;;;;;;;10.17;100.00;100500.56;5050056;28;20100;-73
2022/04/22 06:17:20;;;;;;;36.22;26.17;;;;;;;10.20;100.00;100488.66;5050036;28;20086;-74
2022/04/22 06:19:45;;;;;;;90.82;70.18;;;;;;;10.22;100.00;100482.66;5049855;28;20021;-73
2022/04/22 06:22:11;;;;;;;32.28;25.05;;;;;;;10.24;100.00;100483.59;5050009;28;20585;-74
2022/04/22 06:24:36;;;;;;;21.60;16.67;;;;;;;10.35;100.00;100501.28;5049710;28;20057;-71
2022/04/22 06:27:02;;;;;;;21.10;17.48;;;;;;;10.33;100.00;100489.09;5049256;28;20025;-72
2022/04/22 06:29:28;;;;;;;22.33;18.40;;;;;;;10.36;100.00;100497.00;5049709;28;20024;-71
2022/04/22 06:31:54;;;;;;;22.95;17.92;;;;;;;10.32;100.00;100484.78;5050097;28;20091;-71
2022/04/22 06:34:20;;;;;;;21.38;17.27;;;;;;;10.11;100.00;100459.91;5049592;28;20028;-72
2022/04/22 06:36:46;;;;;;;21.70;17.50;;;;;;;10.46;100.00;100503.41;5049899;28;20047;-71
2022/04/22 06:39:13;;;;;;;22.15;16.52;;;;;;;10.40;100.00;100472.22;5049950;28;20361;-71
2022/04/22 06:47:09;;;;;;;20.02;16.75;;;;;;;10.78;100.00;100526.94;5049509;28;20028;-71
2022/04/22 06:49:34;;;;;;;21.30;16.20;;;;;;;10.65;100.00;100495.53;5049925;28;20028;-71
2022/04/22 06:52:01;;;;;;;22.92;17.17;;;;;;;10.79;100.00;100534.78;5049637;28;20039;-71
2022/04/22 06:54:27;;;;;;;21.42;17.17;;;;;;;10.73;100.00;100544.88;5049247;28;20100;-73
2022/04/22 06:56:53;;;;;;;22.92;16.83;;;;;;;10.69;100.00;100548.16;5049565;28;20106;-72
2022/04/22 06:59:21;;;;;;;22.60;18.50;;;;;;;10.66;100.00;100548.91;5049665;28;20075;-72
2022/04/22 07:01:47;;;;;;;22.80;17.42;;;;;;;10.63;100.00;100553.06;5049536;28;20418;-71
2022/04/22 07:04:14;;;;;;;20.67;17.38;;;;;;;10.66;100.00;100548.91;5048556;28;20083;-73
2022/04/22 07:06:42;;;;;;;22.90;16.52;;;;;;;10.68;100.00;100531.78;5049338;28;20017;-71
2022/04/22 07:09:10;;;;;;;24.42;17.83;;;;;;;10.69;100.00;100522.31;5049524;28;20488;-71
2022/04/22 07:11:38;;;;;;;22.15;17.20;;;;;;;10.77;100.00;100522.63;5049590;28;20021;-71
2022/04/22 07:14:04;;;;;;;20.67;17.15;;;;;;;10.82;100.00;100514.22;5049185;28;20480;-73
2022/04/22 07:16:30;;;;;;;21.65;17.35;;;;;;;10.69;100.00;100506.81;5031452;28;20120;-72
2022/04/22 07:18:57;;;;;;;21.70;17.35;;;;;;;10.80;100.00;100505.56;5049537;28;20421;-72
2022/04/22 07:21:24;;;;;;;46.65;26.58;;;;;;;10.92;100.00;100505.09;5048264;28;20025;-72
2022/04/22 07:23:50;;;;;;;34.15;22.98;;;;;;;10.86;100.00;100506.59;5045680;28;20029;-72
2022/04/22 07:26:20;;;;;;;36.72;24.05;;;;;;;11.00;100.00;100518.28;5049251;28;20423;-71
2022/04/22 07:28:48;;;;;;;44.20;27.27;;;;;;;10.92;100.00;100505.09;5052719;28;20108;-71
2022/04/22 07:31:20;;;;;;;41.78;26.52;;;;;;;10.93;100.00;100501.69;5053224;28;20122;-71
2022/04/22 07:33:46;;;;;;;33.40;22.45;;;;;;;10.82;100.00;100483.22;5051354;28;20100;-71
2022/04/22 07:36:12;;;;;;;20.20;16.92;;;;;;;10.83;100.00;100474.66;5050202;28;20017;-71
2022/04/22 07:38:37;;;;;;;21.83;16.20;;;;;;;10.83;100.00;100482.41;5053257;28;20093;-72
2022/04/22 07:41:07;;;;;;;24.75;18.55;;;;;;;10.80;100.00;100453.00;5053010;28;20069;-71
2022/04/22 07:49:04;;;;;;;21.13;15.65;;;;;;;11.08;100.00;100462.59;5053027;28;20036;-72
2022/04/22 07:51:31;;;;;;;22.90;15.32;;;;;;;11.39;100.00;100478.28;5052919;28;20017;-73
2022/04/22 07:53:57;;;;;;;20.25;15.13;;;;;;;11.44;100.00;100451.75;5033208;28;20009;-73
2022/04/22 07:56:24;;;;;;;19.38;14.07;;;;;;;11.28;100.00;100401.25;5052994;28;20043;-73
2022/04/22 07:58:49;;;;;;;20.50;14.30;;;;;;;11.62;100.00;100430.78;5052561;28;20028;-72
2022/04/22 08:01:15;;;;;;;22.73;14.75;;;;;;;11.71;100.00;100429.34;5052602;28;20025;-72
2022/04/22 08:03:40;;;;;;;25.45;15.10;;;;;;;11.78;100.00;100416.63;5051879;28;20068;-74
2022/04/22 08:06:06;;;;;;;21.17;14.82;;;;;;;11.88;100.00;100411.75;5052996;28;20029;-73
2022/04/22 08:08:32;;;;;;;22.90;13.68;;;;;;;12.00;100.00;100396.66;5052533;28;20070;-73
2022/04/22 08:10:57;;;;;;;26.75;14.13;;;;;;;12.08;100.00;100387.38;5051811;28;20028;-73
2022/04/22 08:13:26;;;;;;;16.23;12.70;;;;;;;12.17;100.00;100370.38;5051717;28;20458;-73
2022/04/22 08:15:51;;;;;;;14.15;10.35;;;;;;;12.03;100.00;100338.94;5052061;28;20032;-72
2022/04/22 08:18:17;;;;;;;14.63;9.75;;;;;;;12.00;100.00;100334.56;5053093;28;20028;-72
2022/04/22 08:20:43;;;;;;;14.00;9.93;;;;;;;11.89;100.00;100338.50;5053055;28;20108;-71
2022/04/22 08:23:08;;;;;;;13.82;9.98;;;;;;;11.88;100.00;100344.50;5033722;28;20549;-74
2022/04/22 08:25:34;;;;;;;18.58;10.70;;;;;;;11.96;100.00;100353.38;5052871;28;20027;-71
2022/04/22 08:28:00;;;;;;;21.67;11.70;;;;;;;11.96;100.00;100309.41;5041863;28;20392;-71
2022/04/22 08:30:26;;;;;;;15.45;10.60;;;;;;;12.26;100.00;100334.38;5038694;28;20025;-71
2022/04/22 08:32:51;;;;;;;18.10;11.45;;;;;;;12.37;100.00;100324.34;5043743;28;20021;-72
2022/04/22 08:35:17;;;;;;;12.68;10.63;;;;;;;12.41;100.00;100318.41;5032611;28;20035;-73
2022/04/22 08:37:44;;;;;;;13.18;9.70;;;;;;;12.38;100.00;100311.44;5032700;28;20020;-74
2022/04/22 08:40:10;;;;;;;15.07;10.27;;;;;;;12.64;100.00;100326.78;5041947;28;20485;-78
2022/04/22 08:42:38;;;;;;;12.85;9.73;;;;;;;12.60;100.00;100306.84;5052338;28;20035;-77
2022/04/22 08:45:06;;;;;;;13.07;8.90;;;;;;;12.93;100.00;100345.69;5052867;28;20086;-74
2022/04/22 08:50:19;;;;;;;11.20;9.30;;;;;;;12.88;100.00;100305.81;5052988;28;20388;-77
2022/04/22 08:53:02;;;;;;;;;;;;;;;13.26;100.00;100367.22;5052927;28;20492;-75
2022/04/22 08:55:30;;;;;;;12.43;9.25;;;;;;;12.84;100.00;100334.22;5052636;28;20356;-78
2022/04/22 08:57:55;;;;;;;14.30;10.25;;;;;;;13.05;100.00;100385.72;5050967;28;20017;-73
2022/04/22 09:00:27;;;;;;;12.23;9.73;;;;;;;13.03;100.00;100370.09;5030956;28;20117;-75
2022/04/22 09:02:57;;;;;;;13.32;9.45;;;;;;;13.13;100.00;100345.28;5015281;28;20021;-74
2022/04/22 09:05:24;;;;;;;11.02;9.25;;;;;;;13.23;100.00;100342.09;5050982;28;20033;-73
2022/04/22 09:07:50;;;;;;;12.57;9.15;;;;;;;13.39;100.00;100358.91;4998921;28;20036;-73
2022/04/22 09:10:16;;;;;;;10.77;9.30;;;;;;;13.56;100.00;100368.81;5051372;28;20116;-75
2022/04/22 09:12:52;;;;;;;14.57;9.43;;;;;;;13.57;100.00;100342.00;5050591;28;20120;-73
2022/04/22 09:15:17;;;;;;;13.40;9.80;;;;;;;13.75;100.00;100354.53;5051247;28;20060;-72
2022/04/22 09:17:43;;;;;;;16.55;10.18;;;;;;;13.61;100.00;100341.25;5051339;28;20114;-73
2022/04/22 09:20:15;;;;;;;14.07;9.32;;;;;;;13.94;100.00;100381.75;5050832;28;20387;-75
2022/04/22 09:22:40;;;;;;;14.52;9.38;;;;;;;14.03;100.00;100386.25;5050687;28;20021;-73
2022/04/22 09:25:06;;;;;;;11.43;9.55;;;;;;;13.89;100.00;100349.63;5051072;28;20473;-73
2022/04/22 09:27:32;;;;;;;11.98;8.77;;;;;;;14.17;100.00;100384.84;5050226;28;20379;-72
2022/04/22 09:29:59;;;;;;;14.25;8.90;;;;;;;14.18;100.00;100346.78;5050148;28;20374;-73
2022/04/22 09:32:29;;;;;;;13.20;8.60;;;;;;;14.49;100.00;100375.94;5050006;28;20027;-72
2022/04/22 09:35:12;;;;;;;11.80;7.75;;;;;;;14.52;100.00;100374.28;5052518;28;20028;-71
2022/04/22 09:43:38;;;;;;;12.55;8.43;;;;;;;14.92;100.00;100355.13;5042745;28;20439;-75
2022/04/22 09:46:04;;;;;;;13.48;7.93;;;;;;;15.07;100.00;100357.09;5054005;28;20505;-77
2022/04/22 09:48:46;;;;;;;10.93;6.93;;;;;;;15.09;100.00;100345.00;5022372;28;20032;-75
2022/04/22 09:51:30;;;;;;;14.35;7.95;;;;;;;15.19;100.00;100349.50;5050440;28;20502;-73
2022/04/22 09:54:03;;;;;;;14.70;8.25;;;;;;;15.36;100.00;100342.84;5050896;28;20454;-72
2022/04/22 09:56:31;;;;;;;13.85;8.35;;;;;;;15.67;100.00;100338.06;5050960;28;20028;-73
2022/04/22 09:58:56;;;;;;;12.70;8.40;;;;;;;15.82;100.00;100327.03;5050137;28;20025;-74
2022/04/22 10:01:23;;;;;;;13.02;9.40;;;;;;;16.01;100.00;100330.75;5049344;28;20025;-75
2022/04/22 10:03:50;;;;;;;10.15;7.65;;;;;;;16.09;98.43;100336.06;5049431;28;20020;-74
2022/04/22 10:06:15;;;;;;;11.52;8.85;;;;;;;16.23;99.52;100337.94;5049121;28;20021;-73
2022/04/22 10:08:43;;;;;;;13.20;8.85;;;;;;;16.45;100.00;100326.03;5050481;28;20025;-74
2022/04/22 10:11:11;;;;;;;13.63;7.97;;;;;;;16.62;100.00;100311.44;5052690;28;20104;-74
2022/04/22 10:13:46;;;;;;;10.25;7.13;;;;;;;16.84;97.10;100311.63;5049933;28;20041;-74
2022/04/22 10:16:13;;;;;;;8.98;5.93;;;;;;;16.90;95.06;100303.88;5049754;28;20121;-76
2022/04/22 10:18:39;;;;;;;10.80;5.70;;;;;;;16.93;95.67;100290.88;5050028;28;20103;-75
2022/04/22 10:21:06;;;;;;;7.20;4.90;;;;;;;17.04;91.30;100285.75;5050189;28;20021;-74
2022/04/22 10:23:32;;;;;;;9.02;4.50;;;;;;;17.09;93.40;100273.59;5049933;28;20449;-76
2022/04/22 10:25:58;;;;;;;7.65;4.40;;;;;;;17.25;92.09;100268.50;5049788;28;20029;-75
2022/04/22 10:28:26;;;;;;;10.77;7.85;;;;;;;17.41;90.51;100278.16;5049961;28;20031;-75
2022/04/22 10:30:54;;;;;;;5.78;3.78;;;;;;;17.47;86.85;100279.94;5049783;28;20024;-74
2022/04/22 10:33:25;;;;;;;6.45;3.53;;;;;;;17.57;86.64;100279.13;5031682;28;20025;-75
2022/04/22 10:35:58;;;;;;;6.05;3.60;;;;;;;17.70;87.02;100248.72;5049678;28;20070;-75
2022/04/22 10:38:33;;;;;;;7.43;4.07;;;;;;;18.06;83.43;100254.97;5050245;28;20499;-75
2022/04/22 10:41:05;;;;;;;9.30;4.20;;;;;;;18.22;85.61;100268.09;5050449;28;20024;-75
2022/04/22 10:43:31;;;;;;;7.78;4.53;;;;;;;18.35;82.68;100261.13;5049790;28;20021;-72
2022/04/22 10:48:42;;;;;;;5.95;3.53;;;;;;;18.51;83.03;100254.19;5048290;28;20115;-75
2022/04/22 10:51:11;;;;;;;7.60;3.80;;;;;;;18.54;86.09;100236.78;5031555;28;20013;-74
2022/04/22 10:53:49;;;;;;;7.20;3.43;;;;;;;18.33;81.24;100250.69;5048625;28;20472;-74
2022/04/22 10:56:28;;;;;;;7.00;3.42;;;;;;;18.55;80.64;100246.31;5049414;28;20032;-74
2022/04/22 10:59:12;;;;;;;7.33;3.97;;;;;;;18.76;79.15;100237.59;5048821;28;20025;-73
2022/04/22 11:01:39;;;;;;;7.95;4.28;;;;;;;18.49;84.15;100214.97;5046150;28;20090;-74
2022/04/22 11:04:17;;;;;;;6.78;4.07;;;;;;;18.79;85.37;100223.69;5052205;28;20444;-73
2022/04/22 11:06:43;;;;;;;4.43;3.10;;;;;;;18.60;80.97;100207.13;5054605;28;20447;-72
2022/04/22 11:09:08;;;;;;;8.15;3.20;;;;;;;18.27;81.25;100212.34;5052409;28;20040;-73
2022/04/22 11:11:40;;;;;;;7.00;3.30;;;;;;;18.29;81.33;100216.69;5054016;28;20110;-73
2022/04/22 11:14:28;;;;;;;7.40;3.60;;;;;;;18.40;81.37;100221.03;5035701;28;20037;-77
2022/04/22 11:16:55;;;;;;;7.30;3.97;;;;;;;18.73;81.58;100208.00;5053872;28;20032;-73
2022/04/22 11:19:21;;;;;;;6.63;3.88;;;;;;;19.03;78.63;100206.25;5053862;28;20031;-72
2022/04/22 11:21:52;;;;;;;6.35;3.67;;;;;;;19.08;83.36;100218.44;5053936;28;20078;-72
2022/04/22 11:24:25;;;;;;;4.47;2.35;;;;;;;18.92;76.19;100177.50;5053637;28;20021;-71
2022/04/22 11:26:52;;;;;;;5.18;3.10;;;;;;;18.71;78.34;100201.91;5053382;28;20559;-73
2022/04/22 11:29:18;;;;;;;6.57;3.45;;;;;;;18.45;78.74;100194.91;5002046;28;20041;-73
2022/04/22 11:32:03;;;;;;;7.60;3.47;;;;;;;18.24;77.13;100173.16;5049894;28;20088;-72
2022/04/22 11:34:43;;;;;;;6.72;3.38;;;;;;;18.24;78.75;100193.16;5030515;28;20112;-72
2022/04/22 11:37:19;;;;;;;9.48;3.90;;;;;;;18.41;78.10;100187.97;5051620;28;20025;-72
2022/04/22 11:39:48;;;;;;;8.63;4.07;;;;;;;18.46;82.01;100169.66;5051275;28;20017;-72
2022/04/22 11:42:15;;;;;;;6.25;3.72;;;;;;;18.66;78.53;100170.50;5054026;28;20028;-72
2022/04/22 11:44:41;;;;;;;6.18;2.95;;;;;;;18.73;80.58;100171.41;5053572;28;20020;-72
2022/04/22 11:47:07;;;;;;;6.68;3.50;;;;;;;18.87;81.22;100160.91;5053642;28;20033;-72
2022/04/22 11:49:35;;;;;;;10.13;4.22;;;;;;;18.86;82.61;100151.31;5053879;28;20043;-72
2022/04/22 11:52:01;;;;;;;6.72;3.83;;;;;;;18.88;80.49;100139.97;5053813;28;20476;-71
2022/04/22 11:54:27;;;;;;;7.05;3.70;;;;;;;18.85;78.08;100133.88;5051685;28;20052;-71
2022/04/22 11:57:03;;;;;;;7.43;3.40;;;;;;;19.08;79.14;100118.16;5053657;28;20357;-71